Time;durP1;ratioP1;P1;durP2;ratioP2;P2;SDS_P1;SDS_P2;PMS_P1;PMS_P2;Temp;Humidity;BMP_temperature;BMP_pressure;BME280_temperature;BME280_humidity;BME280_pressure;Samples;Min_cycle;Max_cycle;Signal;HPM_P1;HPM_P2
2023/05/24 00:02:07;;;;;;;21.08;8.23;;;;;;;;;;5004324;28;20048;-61
2023/05/24 00:04:34;;;;;;;20.88;8.38;;;;;;;;;;5011597;28;20033;-61
2023/05/24 00:07:02;;;;;;;20.05;7.65;;;;;;;;;;5012365;28;20030;-61
2023/05/24 00:09:28;;;;;;;26.63;9.52;;;;;;;;;;5011065;28;20065;-61
2023/05/24 00:11:54;;;;;;;21.73;7.18;;;;;;;;;;5010880;28;20029;-60
2023/05/24 00:14:21;;;;;;;21.38;8.38;;;;;;;;;;5010228;28;20033;-62
2023/05/24 00:16:47;;;;;;;26.95;7.43;;;;;;;;;;5010960;28;20116;-60
2023/05/24 00:19:17;;;;;;;21.95;8.60;;;;;;;;;;5010837;28;20084;-62
2023/05/24 00:21:43;;;;;;;20.67;7.80;;;;;;;;;;5054567;22;20064;-63
2023/05/24 00:24:10;;;;;;;21.25;7.55;;;;;;;;;;5028870;28;20033;-60
2023/05/24 00:26:36;;;;;;;21.35;8.10;;;;;;;;;;5044861;28;20077;-62
2023/05/24 00:29:02;;;;;;;25.13;11.50;;;;;;;;;;5026980;28;20109;-62
2023/05/24 00:31:28;;;;;;;24.75;10.88;;;;;;;;;;5030697;28;20054;-62
2023/05/24 00:33:54;;;;;;;20.23;7.70;;;;;;;;;;5030015;28;20097;-62
2023/05/24 00:36:20;;;;;;;20.38;8.13;;;;;;;;;;5012323;28;20057;-62
2023/05/24 00:38:46;;;;;;;29.55;8.40;;;;;;;;;;5030830;28;20033;-63
2023/05/24 00:41:12;;;;;;;21.77;8.00;;;;;;;;;;5030357;28;20477;-63
2023/05/24 00:43:38;;;;;;;23.83;8.13;;;;;;;;;;5030335;28;20036;-64
2023/05/24 00:46:20;;;;;;;22.48;8.35;;;;;;;;;;5029577;28;20509;-63
2023/05/24 00:48:47;;;;;;;22.33;8.23;;;;;;;;;;5030207;28;20025;-63
2023/05/24 00:51:14;;;;;;;18.90;7.93;;;;;;;;;;5030294;28;20433;-62
2023/05/24 00:53:41;;;;;;;21.58;7.68;;;;;;;;;;5012485;28;20021;-63
2023/05/24 00:56:07;;;;;;;21.77;8.38;;;;;;;;;;5029610;28;20109;-64
2023/05/24 00:58:33;;;;;;;23.42;8.05;;;;;;;;;;5030189;28;20060;-63
2023/05/24 01:01:00;;;;;;;22.17;8.45;;;;;;;;;;5032264;28;20021;-64
2023/05/24 01:03:29;;;;;;;22.63;8.57;;;;;;;;;;5016258;28;20056;-64
2023/05/24 01:06:00;;;;;;;20.13;8.13;;;;;;;;;;5033438;28;20025;-63
2023/05/24 01:08:41;;;;;;;25.23;9.20;;;;;;;;;;5034094;28;20478;-63
2023/05/24 01:11:34;;;;;;;22.70;7.82;;;;;;;;;;5033615;28;20033;-63
2023/05/24 01:14:19;;;;;;;27.15;8.05;;;;;;;;;;4993333;28;20065;-63
2023/05/24 01:17:03;;;;;;;23.58;8.00;;;;;;;;;;5034159;28;20032;-62
2023/05/24 01:19:42;;;;;;;16.88;7.15;;;;;;;;;;5034229;28;20440;-64
2023/05/24 01:22:17;;;;;;;24.17;7.90;;;;;;;;;;5016155;28;20523;-63
2023/05/24 01:24:46;;;;;;;30.80;8.10;;;;;;;;;;5015210;28;20029;-63
2023/05/24 01:27:12;;;;;;;18.55;7.72;;;;;;;;;;5033722;28;20026;-64
2023/05/24 01:29:39;;;;;;;22.42;7.72;;;;;;;;;;5033907;28;20394;-64
2023/05/24 01:32:05;;;;;;;22.02;7.47;;;;;;;;;;5033450;28;20057;-61
2023/05/24 01:34:31;;;;;;;22.50;8.77;;;;;;;;;;5032757;28;20021;-63
2023/05/24 01:36:57;;;;;;;24.50;8.90;;;;;;;;;;5033680;28;20405;-62
2023/05/24 01:39:25;;;;;;;23.10;8.00;;;;;;;;;;5033467;28;20090;-63
2023/05/24 01:41:59;;;;;;;22.88;7.88;;;;;;;;;;5033392;28;20140;-61
2023/05/24 01:44:32;;;;;;;19.92;7.53;;;;;;;;;;5032592;28;20485;-62
2023/05/24 01:47:04;;;;;;;24.92;7.30;;;;;;;;;;5047794;28;20132;-61
2023/05/24 01:49:33;;;;;;;24.73;7.00;;;;;;;;;;5053151;28;20074;-64
2023/05/24 01:52:04;;;;;;;20.60;7.50;;;;;;;;;;5053087;28;20396;-61
2023/05/24 01:54:36;;;;;;;24.60;7.50;;;;;;;;;;5052205;28;20081;-63
2023/05/24 01:57:05;;;;;;;22.63;7.57;;;;;;;;;;5053178;28;20055;-62
2023/05/24 01:59:31;;;;;;;20.13;7.30;;;;;;;;;;5053086;28;20060;-64
2023/05/24 02:01:57;;;;;;;24.50;8.93;;;;;;;;;;5052858;28;20044;-60
2023/05/24 02:04:23;;;;;;;23.60;8.20;;;;;;;;;;5052150;28;20029;-64
2023/05/24 02:06:49;;;;;;;21.10;7.47;;;;;;;;;;5035086;28;20200;-64
2023/05/24 02:09:16;;;;;;;24.80;7.88;;;;;;;;;;5052859;28;20071;-65
2023/05/24 02:11:41;;;;;;;20.50;7.85;;;;;;;;;;5051801;28;20028;-62
2023/05/24 02:14:07;;;;;;;21.83;7.55;;;;;;;;;;5052159;28;20093;-62
2023/05/24 02:16:41;;;;;;;22.10;7.85;;;;;;;;;;5052524;28;20080;-62
2023/05/24 02:19:07;;;;;;;24.13;7.53;;;;;;;;;;5034777;28;20548;-62
2023/05/24 02:21:33;;;;;;;24.83;9.20;;;;;;;;;;5034597;28;20400;-62
2023/05/24 02:23:59;;;;;;;24.42;7.80;;;;;;;;;;5051798;28;20124;-61
2023/05/24 02:26:25;;;;;;;25.42;8.43;;;;;;;;;;5052367;28;20029;-62
2023/05/24 02:28:51;;;;;;;20.05;7.63;;;;;;;;;;5052368;28;20052;-63
2023/05/24 02:31:17;;;;;;;26.30;8.13;;;;;;;;;;5052263;28;20095;-63
2023/05/24 02:33:43;;;;;;;22.67;7.75;;;;;;;;;;5052263;28;20021;-63
2023/05/24 02:36:09;;;;;;;22.73;8.63;;;;;;;;;;5051730;28;20029;-63
2023/05/24 02:38:36;;;;;;;22.17;7.13;;;;;;;;;;5051809;28;20048;-64
2023/05/24 02:41:02;;;;;;;27.65;8.43;;;;;;;;;;5052132;28;20059;-63
2023/05/24 02:43:28;;;;;;;27.38;8.63;;;;;;;;;;5052173;28;20044;-64
2023/05/24 02:45:54;;;;;;;28.38;8.25;;;;;;;;;;5051279;28;20441;-64
2023/05/24 02:48:20;;;;;;;21.08;8.35;;;;;;;;;;5052043;28;20052;-61
2023/05/24 02:50:46;;;;;;;26.23;8.57;;;;;;;;;;5034003;28;20018;-67
2023/05/24 02:53:12;;;;;;;24.17;8.85;;;;;;;;;;5051710;28;20021;-62
2023/05/24 02:55:38;;;;;;;29.25;9.35;;;;;;;;;;5051035;28;20385;-62
2023/05/24 02:58:05;;;;;;;22.48;7.95;;;;;;;;;;5051812;28;20046;-61
2023/05/24 03:00:31;;;;;;;25.13;7.88;;;;;;;;;;5051648;28;20085;-62
2023/05/24 03:03:01;;;;;;;23.20;7.20;;;;;;;;;;5051547;28;20111;-61
2023/05/24 03:05:27;;;;;;;24.67;9.05;;;;;;;;;;5050737;28;20032;-62
2023/05/24 03:07:53;;;;;;;24.80;8.07;;;;;;;;;;5051334;28;20119;-64
2023/05/24 03:10:19;;;;;;;23.08;7.95;;;;;;;;;;5033575;28;20107;-64
2023/05/24 03:12:45;;;;;;;22.75;7.95;;;;;;;;;;5051504;28;20503;-63
2023/05/24 03:15:11;;;;;;;26.00;8.18;;;;;;;;;;5050705;28;20071;-65
2023/05/24 03:17:37;;;;;;;22.08;7.60;;;;;;;;;;5051466;28;20447;-62
2023/05/24 03:20:04;;;;;;;25.67;8.57;;;;;;;;;;5051527;28;20025;-63
2023/05/24 03:22:30;;;;;;;28.08;7.93;;;;;;;;;;5051087;28;20034;-66
2023/05/24 03:24:57;;;;;;;27.30;8.15;;;;;;;;;;5050484;28;20032;-64
2023/05/24 03:27:23;;;;;;;22.23;8.48;;;;;;;;;;5051319;28;20079;-64
2023/05/24 03:29:48;;;;;;;20.48;7.72;;;;;;;;;;5051229;28;20021;-64
2023/05/24 03:32:14;;;;;;;33.38;9.80;;;;;;;;;;5051296;28;20021;-63
2023/05/24 03:34:40;;;;;;;24.13;9.38;;;;;;;;;;5051172;28;20498;-65
2023/05/24 03:37:06;;;;;;;25.02;8.60;;;;;;;;;;5052045;28;20082;-61
2023/05/24 03:39:32;;;;;;;22.80;8.13;;;;;;;;;;5051285;28;20045;-63
2023/05/24 03:41:58;;;;;;;26.63;8.48;;;;;;;;;;5050878;28;20112;-63
2023/05/24 03:44:25;;;;;;;29.70;8.60;;;;;;;;;;5049989;28;20044;-62
2023/05/24 03:46:51;;;;;;;28.33;9.10;;;;;;;;;;5050740;28;20470;-63
2023/05/24 03:49:17;;;;;;;21.15;8.35;;;;;;;;;;5050669;28;20025;-64
2023/05/24 03:51:43;;;;;;;34.00;8.70;;;;;;;;;;5050512;28;20029;-62
2023/05/24 03:54:09;;;;;;;26.30;9.15;;;;;;;;;;5050257;28;20057;-67
2023/05/24 03:56:36;;;;;;;26.45;9.00;;;;;;;;;;5050751;28;20078;-63
2023/05/24 03:59:02;;;;;;;23.83;8.55;;;;;;;;;;5050787;28;20035;-60
2023/05/24 04:01:30;;;;;;;22.30;8.00;;;;;;;;;;5051502;28;20048;-60
2023/05/24 04:03:56;;;;;;;30.60;9.43;;;;;;;;;;5049846;28;20550;-60
2023/05/24 04:06:27;;;;;;;36.85;9.90;;;;;;;;;;5050286;28;20060;-64
2023/05/24 04:08:54;;;;;;;28.52;9.43;;;;;;;;;;5033087;28;20048;-63
2023/05/24 04:11:21;;;;;;;26.73;9.90;;;;;;;;;;5050307;28;20017;-61
2023/05/24 04:13:47;;;;;;;23.17;8.73;;;;;;;;;;5050296;28;20024;-64
2023/05/24 04:16:13;;;;;;;27.73;9.55;;;;;;;;;;5049971;28;20064;-64
2023/05/24 04:18:39;;;;;;;31.13;10.40;;;;;;;;;;5032560;28;20057;-61
2023/05/24 04:21:05;;;;;;;26.80;10.48;;;;;;;;;;5049913;28;20505;-61
2023/05/24 04:23:31;;;;;;;26.05;9.85;;;;;;;;;;5053841;28;20036;-62
2023/05/24 04:25:57;;;;;;;31.17;11.20;;;;;;;;;;5033374;28;20064;-63
2023/05/24 04:28:25;;;;;;;25.15;9.68;;;;;;;;;;5050077;28;20516;-65
2023/05/24 04:30:51;;;;;;;28.13;11.20;;;;;;;;;;5050144;28;20619;-62
2023/05/24 04:33:17;;;;;;;31.15;10.00;;;;;;;;;;5032419;28;20529;-66
2023/05/24 04:35:44;;;;;;;31.17;10.98;;;;;;;;;;5052867;28;20048;-63
2023/05/24 04:38:11;;;;;;;24.25;9.73;;;;;;;;;;5038743;28;20029;-59
2023/05/24 04:40:37;;;;;;;29.52;9.38;;;;;;;;;;5056858;28;20031;-63
2023/05/24 04:43:06;;;;;;;31.15;10.90;;;;;;;;;;5056622;28;20503;-62
2023/05/24 04:45:32;;;;;;;;;;;;;;;;;;5056534;28;20512;-64
2023/05/24 04:47:58;;;;;;;24.38;10.00;;;;;;;;;;5056408;28;20007;-64
2023/05/24 04:50:24;;;;;;;27.52;9.00;;;;;;;;;;5056333;28;20067;-63
2023/05/24 04:52:50;;;;;;;29.77;10.10;;;;;;;;;;5056868;28;20018;-64
2023/05/24 04:55:16;;;;;;;26.98;10.52;;;;;;;;;;5055940;28;20079;-60
2023/05/24 04:57:42;;;;;;;27.27;11.68;;;;;;;;;;5038399;28;20028;-60
2023/05/24 05:00:09;;;;;;;32.50;9.52;;;;;;;;;;5038569;28;20466;-64
2023/05/24 05:02:35;;;;;;;21.98;9.95;;;;;;;;;;5056535;28;20112;-64
2023/05/24 05:05:01;;;;;;;25.42;9.10;;;;;;;;;;5037857;28;20496;-63
2023/05/24 05:07:27;;;;;;;27.92;11.45;;;;;;;;;;5056452;28;20075;-61
2023/05/24 05:09:53;;;;;;;29.52;10.50;;;;;;;;;;5056491;28;20025;-56
2023/05/24 05:12:19;;;;;;;26.38;10.48;;;;;;;;;;5056416;28;20082;-62
2023/05/24 05:14:45;;;;;;;25.15;10.40;;;;;;;;;;5055948;28;20549;-64
2023/05/24 05:17:12;;;;;;;31.55;11.75;;;;;;;;;;5056448;28;20033;-64
2023/05/24 05:19:38;;;;;;;26.20;10.05;;;;;;;;;;5038071;28;20072;-62
2023/05/24 05:22:04;;;;;;;27.23;10.18;;;;;;;;;;5056277;28;20068;-62
2023/05/24 05:24:30;;;;;;;24.60;9.75;;;;;;;;;;5056427;28;20029;-65
2023/05/24 05:26:56;;;;;;;29.67;11.02;;;;;;;;;;5038697;28;20025;-65
2023/05/24 05:29:22;;;;;;;26.65;10.30;;;;;;;;;;5056072;28;20025;-64
2023/05/24 05:31:48;;;;;;;19.88;9.45;;;;;;;;;;5055974;28;20029;-64
2023/05/24 05:34:14;;;;;;;27.75;11.05;;;;;;;;;;5055399;28;20021;-58
2023/05/24 05:36:41;;;;;;;26.20;9.77;;;;;;;;;;5056981;28;20134;-64
2023/05/24 05:39:08;;;;;;;28.83;10.85;;;;;;;;;;5039648;28;20036;-64
2023/05/24 05:41:35;;;;;;;28.85;11.13;;;;;;;;;;5056788;28;20036;-58
2023/05/24 05:44:01;;;;;;;25.80;10.02;;;;;;;;;;5055617;28;20040;-60
2023/05/24 05:46:27;;;;;;;25.65;10.13;;;;;;;;;;5037019;28;20025;-57
2023/05/24 05:48:53;;;;;;;26.73;10.20;;;;;;;;;;5052396;28;20077;-59
2023/05/24 05:51:19;;;;;;;28.65;11.07;;;;;;;;;;5052890;28;20032;-61
2023/05/24 05:53:45;;;;;;;28.05;11.25;;;;;;;;;;5053022;28;20090;-62
2023/05/24 05:56:11;;;;;;;24.88;9.55;;;;;;;;;;5052259;28;20062;-64
2023/05/24 05:58:37;;;;;;;24.05;9.30;;;;;;;;;;5052863;28;20021;-63
2023/05/24 06:01:04;;;;;;;29.75;11.55;;;;;;;;;;5052811;28;20446;-61
2023/05/24 06:03:30;;;;;;;28.67;10.98;;;;;;;;;;5044101;28;20029;-62
2023/05/24 06:05:56;;;;;;;31.33;11.18;;;;;;;;;;5031203;28;20123;-61
2023/05/24 06:08:22;;;;;;;30.65;10.38;;;;;;;;;;5032248;28;20488;-62
2023/05/24 06:10:48;;;;;;;38.65;12.23;;;;;;;;;;5032178;28;20100;-59
2023/05/24 06:13:14;;;;;;;30.40;10.77;;;;;;;;;;5032141;28;20051;-63
2023/05/24 06:15:40;;;;;;;27.98;12.68;;;;;;;;;;5031723;28;20060;-64
2023/05/24 06:18:06;;;;;;;27.27;10.73;;;;;;;;;;5032115;28;20025;-63
2023/05/24 06:20:32;;;;;;;29.80;9.77;;;;;;;;;;5031623;28;20447;-60
2023/05/24 06:22:58;;;;;;;28.85;12.02;;;;;;;;;;5031129;22;20038;-58
2023/05/24 06:25:26;;;;;;;31.50;10.63;;;;;;;;;;5013751;28;20088;-59
2023/05/24 06:27:52;;;;;;;31.98;9.82;;;;;;;;;;5013164;28;20112;-57
2023/05/24 06:30:18;;;;;;;22.40;10.00;;;;;;;;;;5013112;28;20029;-60
2023/05/24 06:32:44;;;;;;;27.58;10.00;;;;;;;;;;5012036;28;20030;-60
2023/05/24 06:35:10;;;;;;;29.58;10.57;;;;;;;;;;5009010;28;20034;-59
2023/05/24 06:37:37;;;;;;;29.48;10.90;;;;;;;;;;5011853;28;20037;-59
2023/05/24 06:40:05;;;;;;;24.77;9.65;;;;;;;;;;5013253;28;20069;-59
2023/05/24 06:42:31;;;;;;;28.27;10.95;;;;;;;;;;5013006;28;20029;-59
2023/05/24 06:44:57;;;;;;;32.90;10.38;;;;;;;;;;5010082;28;20132;-57
2023/05/24 06:47:23;;;;;;;26.10;9.75;;;;;;;;;;5013021;28;20022;-57
2023/05/24 06:49:49;;;;;;;25.65;9.02;;;;;;;;;;5013258;28;20025;-57
2023/05/24 06:52:15;;;;;;;28.67;9.57;;;;;;;;;;5013012;28;20044;-59
2023/05/24 06:54:41;;;;;;;25.50;9.02;;;;;;;;;;5010779;28;20021;-59
2023/05/24 06:57:08;;;;;;;33.22;9.55;;;;;;;;;;5012927;28;20025;-59
2023/05/24 06:59:34;;;;;;;25.35;8.80;;;;;;;;;;5012286;28;20084;-53
2023/05/24 07:02:00;;;;;;;22.70;9.13;;;;;;;;;;5011407;28;20022;-55
2023/05/24 07:04:27;;;;;;;28.92;9.77;;;;;;;;;;5011984;28;20025;-56
2023/05/24 07:06:53;;;;;;;33.70;10.07;;;;;;;;;;5012629;28;20025;-57
2023/05/24 07:09:19;;;;;;;25.60;10.70;;;;;;;;;;5010780;28;20101;-56
2023/05/24 07:11:45;;;;;;;26.80;10.15;;;;;;;;;;5012116;28;20021;-59
2023/05/24 07:14:11;;;;;;;27.20;11.55;;;;;;;;;;5011621;28;20033;-57
2023/05/24 07:16:37;;;;;;;26.92;10.30;;;;;;;;;;5012178;28;20117;-56
2023/05/24 07:19:03;;;;;;;29.27;10.80;;;;;;;;;;5012239;28;20022;-56
2023/05/24 07:21:29;;;;;;;28.38;10.50;;;;;;;;;;5010749;28;20045;-56
2023/05/24 07:23:55;;;;;;;27.90;9.65;;;;;;;;;;5005620;28;20037;-60
2023/05/24 07:26:22;;;;;;;26.85;9.60;;;;;;;;;;5008122;28;20045;-55
2023/05/24 07:28:48;;;;;;;25.52;8.90;;;;;;;;;;5012144;28;20026;-56
2023/05/24 07:31:15;;;;;;;28.08;10.20;;;;;;;;;;5010325;28;20032;-57
2023/05/24 07:33:41;;;;;;;26.10;10.35;;;;;;;;;;5011869;28;20038;-68
2023/05/24 07:36:07;;;;;;;23.25;9.98;;;;;;;;;;5010025;28;20536;-60
2023/05/24 07:38:33;;;;;;;21.38;9.02;;;;;;;;;;5011565;28;20034;-53
2023/05/24 07:41:00;;;;;;;20.13;9.23;;;;;;;;;;5011102;28;20050;-51
2023/05/24 07:43:26;;;;;;;27.25;10.18;;;;;;;;;;5011313;28;20363;-57
2023/05/24 07:45:52;;;;;;;28.92;10.20;;;;;;;;;;5010591;28;20474;-57
2023/05/24 07:48:22;;;;;;;26.83;10.00;;;;;;;;;;5011124;28;20113;-56
2023/05/24 07:50:49;;;;;;;28.05;9.82;;;;;;;;;;5011429;28;20085;-56
2023/05/24 07:53:15;;;;;;;29.77;9.75;;;;;;;;;;5011387;28;20029;-58
2023/05/24 07:55:43;;;;;;;24.92;9.93;;;;;;;;;;5010740;28;20053;-59
2023/05/24 07:58:09;;;;;;;27.48;11.55;;;;;;;;;;5011717;28;20110;-59
2023/05/24 08:00:35;;;;;;;23.00;10.48;;;;;;;;;;5011360;28;20037;-55
2023/05/24 08:03:01;;;;;;;28.05;9.88;;;;;;;;;;5011397;28;20029;-56
2023/05/24 08:05:28;;;;;;;24.30;11.18;;;;;;;;;;5009179;28;20030;-56
2023/05/24 08:07:54;;;;;;;22.10;10.43;;;;;;;;;;5010619;28;20137;-56
2023/05/24 08:10:20;;;;;;;25.23;10.50;;;;;;;;;;5010887;28;20026;-57
2023/05/24 08:12:48;;;;;;;27.15;10.65;;;;;;;;;;5010293;28;20018;-58
2023/05/24 08:15:15;;;;;;;26.00;10.00;;;;;;;;;;5009599;28;20486;-60
2023/05/24 08:17:41;;;;;;;27.75;10.30;;;;;;;;;;5011861;28;20022;-59
2023/05/24 08:20:08;;;;;;;23.25;10.38;;;;;;;;;;5008833;28;20034;-59
2023/05/24 08:22:35;;;;;;;25.80;10.68;;;;;;;;;;5011266;28;20038;-56
2023/05/24 08:25:02;;;;;;;24.20;11.30;;;;;;;;;;5008554;28;20075;-56
2023/05/24 08:27:29;;;;;;;21.38;10.60;;;;;;;;;;5010411;28;20029;-57
2023/05/24 08:29:55;;;;;;;23.88;9.85;;;;;;;;;;5011072;28;20093;-59
2023/05/24 08:32:21;;;;;;;23.58;10.82;;;;;;;;;;5011307;28;20026;-54
2023/05/24 08:34:47;;;;;;;26.60;10.43;;;;;;;;;;5010342;28;20014;-56
2023/05/24 08:37:14;;;;;;;25.63;10.40;;;;;;;;;;5010855;28;20028;-56
2023/05/24 08:39:40;;;;;;;36.42;11.40;;;;;;;;;;5011325;28;20026;-54
2023/05/24 08:42:07;;;;;;;30.05;11.25;;;;;;;;;;5010821;28;20056;-55
2023/05/24 08:44:37;;;;;;;26.35;10.88;;;;;;;;;;5010561;28;20502;-56
2023/05/24 08:47:03;;;;;;;23.17;10.80;;;;;;;;;;5011107;28;20030;-55
2023/05/24 08:49:30;;;;;;;21.48;10.82;;;;;;;;;;5009937;28;20152;-54
2023/05/24 08:51:56;;;;;;;26.98;10.75;;;;;;;;;;5009933;28;20018;-56
2023/05/24 08:54:22;;;;;;;24.55;10.10;;;;;;;;;;5010589;28;20014;-56
2023/05/24 08:56:48;;;;;;;28.65;11.73;;;;;;;;;;5011241;28;20474;-54
2023/05/24 08:59:14;;;;;;;26.90;11.20;;;;;;;;;;5011063;28;20037;-58
2023/05/24 09:01:40;;;;;;;23.75;11.68;;;;;;;;;;5010885;28;20026;-58
2023/05/24 09:04:07;;;;;;;26.92;12.32;;;;;;;;;;5010481;28;20026;-55
2023/05/24 09:06:33;;;;;;;24.65;11.48;;;;;;;;;;5010850;28;20437;-54
2023/05/24 09:09:00;;;;;;;26.05;12.60;;;;;;;;;;5009944;28;20059;-55
2023/05/24 09:11:26;;;;;;;23.65;11.40;;;;;;;;;;5011590;28;20076;-50
2023/05/24 09:13:54;;;;;;;26.13;11.60;;;;;;;;;;5009400;28;20022;-58
2023/05/24 09:16:20;;;;;;;26.45;11.70;;;;;;;;;;5009619;28;20030;-52
2023/05/24 09:18:46;;;;;;;27.08;13.82;;;;;;;;;;5011027;28;20026;-54
2023/05/24 09:21:12;;;;;;;23.33;11.20;;;;;;;;;;5011582;28;20479;-55
2023/05/24 09:23:40;;;;;;;23.90;11.90;;;;;;;;;;5013445;28;20026;-52
2023/05/24 09:26:07;;;;;;;26.48;11.55;;;;;;;;;;5014250;28;20057;-53
2023/05/24 09:28:33;;;;;;;23.42;12.35;;;;;;;;;;5015170;28;20239;-50
2023/05/24 09:31:03;;;;;;;23.90;11.82;;;;;;;;;;5015089;28;20036;-54
2023/05/24 09:33:31;;;;;;;25.35;13.70;;;;;;;;;;5015107;28;20105;-55
2023/05/24 09:35:58;;;;;;;28.52;12.60;;;;;;;;;;5014308;28;20029;-56
2023/05/24 09:38:28;;;;;;;27.75;13.35;;;;;;;;;;5014702;28;20038;-55
2023/05/24 09:41:20;;;;;;;33.67;13.25;;;;;;;;;;5014871;28;20053;-57
2023/05/24 09:43:48;;;;;;;21.25;11.45;;;;;;;;;;5011604;28;20082;-49
2023/05/24 09:46:18;;;;;;;24.73;12.10;;;;;;;;;;5014162;28;20037;-60
2023/05/24 09:49:02;;;;;;;23.63;13.30;;;;;;;;;;5014657;28;20037;-54
2023/05/24 09:51:28;;;;;;;25.33;12.57;;;;;;;;;;5014550;28;20018;-57
2023/05/24 09:53:57;;;;;;;28.23;12.68;;;;;;;;;;5014044;28;20080;-55
2023/05/24 09:56:23;;;;;;;26.48;13.60;;;;;;;;;;5014150;28;20022;-56
2023/05/24 09:58:50;;;;;;;24.02;13.18;;;;;;;;;;5014694;28;20029;-57
2023/05/24 10:01:17;;;;;;;23.30;12.73;;;;;;;;;;5014650;28;20026;-56
2023/05/24 10:03:57;;;;;;;26.85;12.02;;;;;;;;;;5014132;28;20427;-57
2023/05/24 10:06:23;;;;;;;26.23;11.70;;;;;;;;;;5013818;28;20068;-54
2023/05/24 10:08:50;;;;;;;27.40;12.35;;;;;;;;;;5013004;28;20406;-54
2023/05/24 10:11:17;;;;;;;24.65;11.40;;;;;;;;;;5014135;28;20022;-56
2023/05/24 10:13:43;;;;;;;26.17;12.73;;;;;;;;;;5014170;28;20034;-55
2023/05/24 10:16:09;;;;;;;27.23;12.82;;;;;;;;;;5011409;28;20026;-57
2023/05/24 10:18:35;;;;;;;26.13;13.65;;;;;;;;;;5013710;28;20022;-57
2023/05/24 10:21:01;;;;;;;23.77;13.43;;;;;;;;;;5011073;28;20088;-57
2023/05/24 10:23:31;;;;;;;25.85;13.27;;;;;;;;;;5014139;28;20052;-59
2023/05/24 10:26:06;;;;;;;23.15;12.32;;;;;;;;;;5013239;28;20025;-57
2023/05/24 10:28:35;;;;;;;19.52;12.45;;;;;;;;;;5010560;28;20348;-60
2023/05/24 10:31:07;;;;;;;23.38;14.00;;;;;;;;;;4661963;28;9999751;-59
2023/05/24 10:33:36;;;;;;;27.13;14.43;;;;;;;;;;5008882;28;20033;-56
2023/05/24 10:36:03;;;;;;;23.08;12.85;;;;;;;;;;5009077;28;20018;-59
2023/05/24 10:38:29;;;;;;;26.65;13.82;;;;;;;;;;5010073;28;20034;-57
2023/05/24 10:40:55;;;;;;;25.90;12.38;;;;;;;;;;5009812;28;20049;-56
2023/05/24 10:43:21;;;;;;;26.70;13.13;;;;;;;;;;5009351;28;20026;-57
2023/05/24 10:45:48;;;;;;;23.55;13.57;;;;;;;;;;5008957;28;20098;-57
2023/05/24 10:48:14;;;;;;;26.40;13.10;;;;;;;;;;5009004;28;20030;-61
2023/05/24 10:50:44;;;;;;;23.98;13.25;;;;;;;;;;5007561;28;20080;-56
2023/05/24 10:53:14;;;;;;;26.55;13.30;;;;;;;;;;5008997;28;20036;-58
2023/05/24 10:56:02;;;;;;;27.63;13.30;;;;;;;;;;5005478;28;20014;-56
2023/05/24 10:58:29;;;;;;;24.73;12.13;;;;;;;;;;5008420;28;20497;-56
2023/05/24 11:00:55;;;;;;;23.20;12.40;;;;;;;;;;5009114;28;20486;-56
2023/05/24 11:03:23;;;;;;;27.25;12.43;;;;;;;;;;5010464;28;20052;-56
2023/05/24 11:05:49;;;;;;;26.65;12.88;;;;;;;;;;5009878;28;20133;-54
2023/05/24 11:08:34;;;;;;;25.17;12.48;;;;;;;;;;5005749;28;20045;-54
2023/05/24 11:11:08;;;;;;;23.92;13.00;;;;;;;;;;5010936;28;20022;-57
2023/05/24 11:13:35;;;;;;;26.17;11.98;;;;;;;;;;5011900;28;20049;-53
2023/05/24 11:16:02;;;;;;;22.98;11.63;;;;;;;;;;5010021;28;20038;-56
2023/05/24 11:18:28;;;;;;;26.73;12.18;;;;;;;;;;5011935;28;20060;-55
2023/05/24 11:20:55;;;;;;;23.85;12.23;;;;;;;;;;5011586;28;20033;-52
2023/05/24 11:23:22;;;;;;;25.35;11.73;;;;;;;;;;5011279;28;20117;-54
2023/05/24 11:25:48;;;;;;;25.33;10.95;;;;;;;;;;5011091;28;20069;-51
2023/05/24 11:28:14;;;;;;;25.60;12.52;;;;;;;;;;5011792;28;20455;-54
2023/05/24 11:30:44;;;;;;;27.45;12.45;;;;;;;;;;5010495;28;20018;-55
2023/05/24 11:33:17;;;;;;;30.00;13.32;;;;;;;;;;5010471;28;20716;-55
2023/05/24 11:35:43;;;;;;;24.35;11.65;;;;;;;;;;5009502;28;20496;-59
2023/05/24 11:38:14;;;;;;;23.35;11.82;;;;;;;;;;5011335;28;20064;-57
2023/05/24 11:40:43;;;;;;;30.35;12.75;;;;;;;;;;5011466;28;20080;-53
2023/05/24 11:43:13;;;;;;;23.70;13.55;;;;;;;;;;5011169;28;20060;-53
2023/05/24 11:45:41;;;;;;;25.95;13.40;;;;;;;;;;5010570;28;20137;-56
2023/05/24 11:48:08;;;;;;;21.63;12.30;;;;;;;;;;5011265;28;20026;-55
2023/05/24 11:50:37;;;;;;;25.23;12.68;;;;;;;;;;5010900;28;20033;-54
2023/05/24 11:53:04;;;;;;;23.65;13.50;;;;;;;;;;5010780;28;20021;-57
2023/05/24 11:55:31;;;;;;;26.00;13.80;;;;;;;;;;5010544;28;20109;-57
2023/05/24 11:57:58;;;;;;;23.98;13.93;;;;;;;;;;5010977;28;20041;-53
2023/05/24 12:00:27;;;;;;;22.10;12.63;;;;;;;;;;5011619;28;20512;-58
2023/05/24 12:03:00;;;;;;;26.02;13.57;;;;;;;;;;5011895;28;20521;-52
2023/05/24 12:05:30;;;;;;;21.67;12.38;;;;;;;;;;5010687;28;20029;-61
2023/05/24 12:08:06;;;;;;;27.45;12.93;;;;;;;;;;5008197;28;20030;-59
2023/05/24 12:10:36;;;;;;;28.92;14.63;;;;;;;;;;5011401;28;20059;-52
2023/05/24 12:13:03;;;;;;;23.83;13.10;;;;;;;;;;5011588;28;20030;-57
2023/05/24 12:15:32;;;;;;;20.65;12.70;;;;;;;;;;5010500;28;20022;-57
2023/05/24 12:17:59;;;;;;;22.65;13.02;;;;;;;;;;5009982;28;20032;-54
2023/05/24 12:20:27;;;;;;;24.58;12.88;;;;;;;;;;5010108;28;20026;-57
2023/05/24 12:22:54;;;;;;;21.73;12.13;;;;;;;;;;5025693;22;20046;-63
2023/05/24 12:25:20;;;;;;;23.42;12.50;;;;;;;;;;4991993;28;20125;-62
2023/05/24 12:27:47;;;;;;;23.70;12.15;;;;;;;;;;4992482;28;20053;-63
2023/05/24 12:30:19;;;;;;;30.15;13.10;;;;;;;;;;5010103;28;20026;-63
2023/05/24 12:32:46;;;;;;;25.40;12.48;;;;;;;;;;5010806;28;20037;-63
2023/05/24 12:35:12;;;;;;;27.48;12.88;;;;;;;;;;5009670;28;20022;-61
2023/05/24 12:37:38;;;;;;;49.88;13.10;;;;;;;;;;5011331;28;20034;-60
2023/05/24 12:40:19;;;;;;;23.77;12.30;;;;;;;;;;4993166;28;20022;-60
2023/05/24 12:42:48;;;;;;;26.17;12.95;;;;;;;;;;5011532;28;20631;-58
2023/05/24 12:45:14;;;;;;;;;;;;;;;;;;5010144;28;20026;-63
2023/05/24 12:47:41;;;;;;;24.30;12.43;;;;;;;;;;4992333;28;19921;-58
2023/05/24 12:50:07;;;;;;;28.00;13.70;;;;;;;;;;5009965;28;20022;-60
2023/05/24 12:52:33;;;;;;;26.25;11.85;;;;;;;;;;4992313;28;20096;-56
2023/05/24 12:54:59;;;;;;;31.15;13.38;;;;;;;;;;5009945;28;20073;-58
2023/05/24 12:57:25;;;;;;;28.83;13.10;;;;;;;;;;5013415;28;20030;-60
2023/05/24 12:59:51;;;;;;;22.73;12.45;;;;;;;;;;5013554;28;20022;-61
2023/05/24 13:02:17;;;;;;;25.30;12.85;;;;;;;;;;5013809;28;20096;-62
2023/05/24 13:04:43;;;;;;;24.98;14.35;;;;;;;;;;5012956;28;20033;-60
2023/05/24 13:07:09;;;;;;;27.30;13.30;;;;;;;;;;5013572;28;20069;-63
2023/05/24 13:09:35;;;;;;;24.02;12.50;;;;;;;;;;5013751;28;20029;-58
2023/05/24 13:12:01;;;;;;;28.40;15.55;;;;;;;;;;5013515;28;20018;-59
2023/05/24 13:14:27;;;;;;;26.50;14.23;;;;;;;;;;4995226;28;20109;-63
2023/05/24 13:16:53;;;;;;;23.20;13.02;;;;;;;;;;4996036;28;20122;-60
2023/05/24 13:19:19;;;;;;;31.20;13.98;;;;;;;;;;5013260;28;20022;-61
2023/05/24 13:21:45;;;;;;;25.58;13.25;;;;;;;;;;5013080;28;20022;-62
2023/05/24 13:24:12;;;;;;;22.27;12.90;;;;;;;;;;5010316;28;20538;-61
2023/05/24 13:26:38;;;;;;;25.20;13.25;;;;;;;;;;4993798;28;20073;-61
2023/05/24 13:29:04;;;;;;;26.05;12.68;;;;;;;;;;4999748;28;20402;-61
2023/05/24 13:31:30;;;;;;;23.15;13.20;;;;;;;;;;5005323;28;20030;-60
2023/05/24 13:33:56;;;;;;;29.92;13.93;;;;;;;;;;4312858;28;10000553;-60
2023/05/24 13:36:22;;;;;;;23.45;13.43;;;;;;;;;;5002560;28;20026;-62
2023/05/24 13:38:48;;;;;;;26.38;13.48;;;;;;;;;;5005598;28;20030;-61
2023/05/24 13:41:14;;;;;;;24.20;12.93;;;;;;;;;;4993615;28;20034;-60
2023/05/24 13:43:40;;;;;;;21.63;13.07;;;;;;;;;;4994497;28;20026;-62
2023/05/24 13:46:06;;;;;;;24.23;12.65;;;;;;;;;;4994110;28;20034;-59
2023/05/24 13:48:33;;;;;;;25.77;12.68;;;;;;;;;;5011547;28;20058;-61
2023/05/24 13:50:59;;;;;;;28.13;13.88;;;;;;;;;;4994783;28;20458;-62
2023/05/24 13:53:27;;;;;;;24.63;12.25;;;;;;;;;;5013378;28;20025;-56
2023/05/24 13:55:53;;;;;;;24.77;12.80;;;;;;;;;;5013987;28;20423;-59
2023/05/24 13:58:19;;;;;;;21.73;12.25;;;;;;;;;;5013628;28;20037;-59
2023/05/24 14:00:45;;;;;;;22.50;12.27;;;;;;;;;;5013114;28;20433;-60
2023/05/24 14:03:11;;;;;;;26.73;14.55;;;;;;;;;;5012480;28;20073;-60
2023/05/24 14:05:39;;;;;;;25.35;14.25;;;;;;;;;;5011874;28;20025;-61
2023/05/24 14:08:05;;;;;;;20.83;13.52;;;;;;;;;;4993697;28;20022;-63
2023/05/24 14:10:35;;;;;;;22.30;13.90;;;;;;;;;;5013296;28;20030;-57
2023/05/24 14:13:05;;;;;;;25.08;15.38;;;;;;;;;;4994713;28;20065;-62
2023/05/24 14:15:31;;;;;;;24.00;15.23;;;;;;;;;;4993665;28;20366;-63
2023/05/24 14:17:59;;;;;;;22.58;13.95;;;;;;;;;;5012399;28;20478;-60
2023/05/24 14:20:25;;;;;;;23.10;14.13;;;;;;;;;;4993415;28;20394;-63
2023/05/24 14:22:52;;;;;;;22.30;14.25;;;;;;;;;;5010323;28;20034;-63
2023/05/24 14:25:18;;;;;;;22.70;13.88;;;;;;;;;;5010585;28;20029;-60